Bradford, Indiana
Current Conditions -  °F | °C
As of 6:56 PM on Wednesday 26 Nov 2014 (Local Time) from KSDF Reporting Station
Overcast Overcast  
Wind Chill: 42°   Ceiling: 20000
Heat Index: 42°   Visibility: 10mi
Dew Point: 26°   Wind: 0mph
Humidity: 53%   Direction: NA
Pressure: 30.02"   Gusts: NA
Location:  38.37°N, 86.06°W
Report Text: KSDF 262356Z 00000KT 10SM SCT120 OVC200 06/M03 A3002 RMK AO2 SLP168 T00561033 10078 20050 56003
Loading
Personal Weather Stations






























Interactive Weather Map New forecast layout! Learn more

10-Day Weather Forecast

Advertisements
Track Severe Weather on mobile